Nearby METAR Reports

 

KMGY - Dayton, Ohio, USA
Distance from station: N 3mi, 5km
Updated: Tue, Dec-12-2017 11:53pm EST
Clear
Clear
 Wind from W
Wind: W 6 mph , 9 km/h
Temperature: 18°F , -8°C
Wind Chill: 10°F , -12°C
Dew Point: 7°F , -14°C
Humidity: 62%
Barometer: 29.96 inHg , 1014.6 hPa
Clouds: Clear
Visibility: 10 miles , 16 km
2017/12/13 04:53 KMGY 130453Z AUTO 27005KT 10SM CLR M08/M14 A2996 RMK AO2 SLP158 T10781139 400501078
KMWO - Middletown/Hook, Ohio, USA
Distance from station: W 9mi, 14km
Updated: Tue, Dec-12-2017 11:55pm EST
Clear
Clear
 Wind from W
Wind: W 6 mph , 9 km/h
Temperature: 16°F , -9°C
Wind Chill: 7°F , -14°C
Dew Point: 9°F , -13°C
Humidity: 73%
Barometer: 30.01 inHg , 1016.3 hPa
Clouds: Clear
Visibility: 10 miles , 16 km
2017/12/13 04:55 KMWO 130455Z AUTO 26005KT 10SM CLR M09/M13 A3001 RMK AO2 PWINO T10921133
 
KHAO - Hamilton, Ohio, USA
Distance from station: SW 20mi, 32km
Updated: Tue, Dec-12-2017 11:53pm EST
Clear
Clear
 Wind from calm
Wind: Calm
Temperature: 12°F , -11°C
Dew Point: 9°F , -13°C
Humidity: 85%
Barometer: 30.02 inHg , 1016.6 hPa
Clouds: Clear
Visibility: 10 miles , 16 km
2017/12/13 04:53 KHAO 130453Z AUTO 00000KT 10SM CLR M11/M13 A3002 RMK AO2 SLP174 T11061128 400611106
KFFO - Wright Paterson, Ohio, USA
Distance from station: NNE 21mi, 34km
Updated: Tue, Dec-12-2017 11:56pm EST
Overcast
Overcast
 Wind from W
Wind: W 12 mph , 19 km/h
Temperature: 21°F , -6°C
Wind Chill: 9°F , -13°C
Dew Point: 7°F , -14°C
Humidity: 54%
Barometer: 29.95 inHg , 1014.2 hPa
Clouds: Overcast
Visibility: 10 miles , 16 km
Cloud details: Overcast 4300 ft
2017/12/13 04:56 KFFO 130456Z AUTO 26010KT 10SM OVC043 M06/M14 A2995 RMK AO2 SLP157 T10641142 400361066
 
KDAY - Dayton, Ohio, USA
Distance from station: N 24mi, 39km
Updated: Tue, Dec-12-2017 11:56pm EST
Mostly cloudy
Mostly cloudy
 Wind from W
Wind: W 14 mph , 22 km/h
Temperature: 18°F , -8°C
Wind Chill: 4°F , -16°C
Dew Point: 9°F , -13°C
Humidity: 68%
Barometer: 29.95 inHg , 1014.2 hPa
Clouds: Mostly cloudy
Visibility: 10 miles , 16 km
Cloud details: Mostly cloudy 4300 ft
2017/12/13 04:56 KDAY 130456Z 27012KT 10SM BKN043 M08/M13 A2995 RMK AO2 SLP156 T10781128 400281078
KILN - Wilmington, Ohio, USA
Distance from station: ESE 25mi, 39km
Updated: Tue, Dec-12-2017 11:54pm EST
Clear
Clear
 Wind from W
Wind: W 10 mph , 17 km/h
Temperature: 18°F , -8°C
Wind Chill: 6°F , -14°C
Dew Point: 9°F , -13°C
Humidity: 68%
Barometer: 29.95 inHg , 1014.2 hPa
Clouds: Clear
Visibility: 10 miles , 16 km
2017/12/13 04:54 KILN 130454Z AUTO 26009KT 10SM CLR M08/M13 A2995 RMK AO2 SLP175 T10831133 400501083
 
KSGH - Springfield Muni, Ohio, USA
Distance from station: NE 29mi, 46km
Updated: Tue, Dec-12-2017 11:56pm EST
Overcast
Overcast
 Wind from W
Wind: W 10 mph , 17 km/h
Temperature: 19°F , -7°C
Wind Chill: 8°F , -13°C
Dew Point: 10°F , -12°C
Humidity: 68%
Barometer: 29.93 inHg , 1013.5 hPa
Clouds: Overcast
Visibility: 10 miles , 16 km
Cloud details: Overcast 4200 ft
2017/12/13 04:56 KSGH 130456Z AUTO 28009KT 10SM OVC042 M07/M12 A2993 RMK AO2 SLP152 T10721122
KI69 - Batavia, Ohio, USA
Distance from station: S 32mi, 52km
Updated: Tue, Dec-12-2017 11:55pm EST
Clear
Clear
 Wind from W
Wind: W 5 mph , 7 km/h
Temperature: 19°F , -7°C
Wind Chill: 12°F , -11°C
Dew Point: 9°F , -13°C
Humidity: 63%
Barometer: 30.01 inHg , 1016.3 hPa
Clouds: Clear
Visibility: 10 miles , 16 km
2017/12/13 04:55 KI69 130455Z AUTO 27004KT 10SM CLR M07/M13 A3001 RMK AO2 T10681133
 
KLUK - Cincinnat/Lunken, Ohio, USA
Distance from station: SSW 33mi, 53km
Updated: Tue, Dec-12-2017 11:53pm EST
Clear
Clear
 Wind from WNW
Wind: WNW 6 mph , 9 km/h
Temperature: 21°F , -6°C
Wind Chill: 13°F , -11°C
Dew Point: 9°F , -13°C
Humidity: 58%
Barometer: 30.04 inHg , 1017.3 hPa
Clouds: Clear
Visibility: 10 miles , 16 km
2017/12/13 04:53 KLUK 130453Z AUTO 30005KT 10SM CLR M06/M13 A3004 RMK AO2 SLP178 T10611133 400671061
KCVG - Covington, Kentucky, USA
Distance from station: SSW 42mi, 67km
Updated: Tue, Dec-12-2017 11:52pm EST
Clear
Clear
 Wind from W
Wind: W 6 mph , 9 km/h
Temperature: 18°F , -8°C
Wind Chill: 10°F , -12°C
Dew Point: 10°F , -12°C
Humidity: 73%
Barometer: 30.00 inHg , 1015.9 hPa
Clouds: Clear
Visibility: 10 miles , 16 km
2017/12/13 04:52 KCVG 130452Z 28005KT 10SM CLR M08/M12 A3000 RMK AO2 SLP166 T10831122 400611083
 
KVES - Versailles, Ohio, USA
Distance from station: NNW 47mi, 76km
Updated: Tue, Dec-12-2017 11:55pm EST
Clear
Clear
 Wind from W
Wind: W 10 mph , 17 km/h
Temperature: 18°F , -8°C
Wind Chill: 6°F , -14°C
Dew Point: 10°F , -12°C
Humidity: 73%
Barometer: 29.94 inHg , 1013.9 hPa
Clouds: Clear
Visibility: 10 miles , 16 km
2017/12/13 04:55 KVES 130455Z AUTO 27009KT 10SM CLR M08/M12 A2994 RMK AO2